createdAt,value
2023-05-17T00:00:46.906Z,10.97
2023-05-17T00:05:48.458Z,13.27
2023-05-17T00:10:49.840Z,15.93
2023-05-17T00:15:51.167Z,14.70
2023-05-17T00:20:52.572Z,11.23
2023-05-17T00:25:53.872Z,14.63
2023-05-17T00:30:55.244Z,11.37
2023-05-17T00:35:57.310Z,17.67
2023-05-17T00:40:58.900Z,14.47
2023-05-17T00:46:00.535Z,14.23
2023-05-17T00:51:02.192Z,7.23
2023-05-17T00:56:04.250Z,11.47
2023-05-17T01:01:07.515Z,15.43
2023-05-17T01:06:09.390Z,18.23
2023-05-17T01:11:30.300Z,13.03
2023-05-17T01:16:47.543Z,13.80
2023-05-17T01:22:07.189Z,19.87
2023-05-17T01:27:12.612Z,10.67
2023-05-17T01:32:15.565Z,19.33
2023-05-17T01:37:17.196Z,13.70
2023-05-17T01:42:26.965Z,15.30
2023-05-17T01:47:50.691Z,17.40
2023-05-17T01:53:14.577Z,16.27
2023-05-17T01:58:18.033Z,12.63
2023-05-17T02:03:20.164Z,13.57
2023-05-17T02:08:26.029Z,19.90
2023-05-17T02:13:27.575Z,12.37
2023-05-17T02:18:29.555Z,15.53
2023-05-17T02:23:30.935Z,20.67
2023-05-17T02:28:32.714Z,10.07
2023-05-17T02:33:34.723Z,18.03
2023-05-17T02:38:36.475Z,13.07
2023-05-17T02:43:38.032Z,13.10
2023-05-17T02:48:39.289Z,21.67
2023-05-17T02:53:40.820Z,15.70
2023-05-17T02:58:42.286Z,14.63
2023-05-17T03:03:43.929Z,14.50
2023-05-17T03:08:45.740Z,18.23
2023-05-17T03:13:50.878Z,12.67
2023-05-17T03:18:55.472Z,12.03
2023-05-17T03:23:57.744Z,16.27
2023-05-17T03:28:59.072Z,22.63
2023-05-17T03:34:00.879Z,15.70
2023-05-17T03:39:03.043Z,17.47
2023-05-17T03:44:04.721Z,26.83
2023-05-17T03:49:07.940Z,17.67
2023-05-17T03:54:09.880Z,20.40
2023-05-17T03:59:11.179Z,22.53
2023-05-17T04:04:12.663Z,25.77
2023-05-17T04:09:16.334Z,27.73
2023-05-17T04:14:18.579Z,21.40
2023-05-17T04:19:20.375Z,24.43
2023-05-17T04:24:21.993Z,25.23
2023-05-17T04:29:24.287Z,24.90
2023-05-17T04:34:26.189Z,27.30
2023-05-17T04:39:30.939Z,22.77
2023-05-17T04:44:32.862Z,31.13
2023-05-17T04:49:34.392Z,26.80
2023-05-17T04:54:36.822Z,26.23
2023-05-17T04:59:39.214Z,26.03
2023-05-17T05:04:40.869Z,32.97
2023-05-17T05:09:46.613Z,30.03
2023-05-17T05:14:49.722Z,28.20
2023-05-17T05:19:51.632Z,27.90
2023-05-17T05:24:54.666Z,26.57
2023-05-17T05:29:56.162Z,21.50
2023-05-17T05:34:59.201Z,28.27
2023-05-17T05:40:00.731Z,21.90
2023-05-17T05:45:02.624Z,19.07
2023-05-17T05:50:05.607Z,28.53
2023-05-17T05:55:07.863Z,19.07
2023-05-17T06:00:11.394Z,24.37
2023-05-17T06:05:15.468Z,24.60
2023-05-17T06:10:17.180Z,21.47
2023-05-17T06:15:18.601Z,17.80
2023-05-17T06:20:20.065Z,20.43
2023-05-17T06:25:23.010Z,16.97
2023-05-17T06:30:24.416Z,21.67
2023-05-17T06:35:25.951Z,18.43
2023-05-17T06:40:27.545Z,19.43
2023-05-17T06:45:29.082Z,12.23
2023-05-17T06:50:31.406Z,17.57
2023-05-17T06:55:33.138Z,14.63
2023-05-17T07:00:34.881Z,11.43
2023-05-17T07:05:36.782Z,16.75
2023-05-17T07:10:38.567Z,16.17
2023-05-17T07:15:40.158Z,12.18
2023-05-17T07:26:45.772Z,16.27
2023-05-17T07:31:47.199Z,16.90
2023-05-17T07:36:48.410Z,15.07
2023-05-17T07:41:49.906Z,16.48
2023-05-17T07:46:51.208Z,14.02
2023-05-17T07:51:53.526Z,14.57
2023-05-17T07:56:54.878Z,9.50
2023-05-17T08:01:56.299Z,9.52
2023-05-17T08:06:57.755Z,10.13
2023-05-17T08:11:59.480Z,8.65
2023-05-17T08:17:00.940Z,9.23
2023-05-17T08:22:02.928Z,6.53
2023-05-17T08:27:04.662Z,9.45
2023-05-17T08:32:06.477Z,5.72
2023-05-17T08:37:07.878Z,7.22
2023-05-17T08:42:09.804Z,7.22
2023-05-17T08:47:12.321Z,5.45
2023-05-17T08:52:14.132Z,9.18
2023-05-17T08:57:17.529Z,11.23
2023-05-17T09:02:19.857Z,6.82
2023-05-17T09:07:22.466Z,7.00
2023-05-17T09:12:25.649Z,8.75
2023-05-17T09:17:27.279Z,12.40
2023-05-17T09:22:28.827Z,7.05
2023-05-17T09:27:31.614Z,7.22
2023-05-17T09:32:33.146Z,6.10
2023-05-17T09:37:38.224Z,11.43
2023-05-17T09:42:40.085Z,4.07
2023-05-17T09:47:41.745Z,4.50
2023-05-17T09:52:43.189Z,9.35
2023-05-17T09:57:46.421Z,10.90
2023-05-17T10:02:50.373Z,6.25
2023-05-17T10:07:54.588Z,6.00
2023-05-17T10:12:56.758Z,5.03
2023-05-17T10:17:59.825Z,9.15
2023-05-17T10:23:03.068Z,7.00
2023-05-17T10:28:07.436Z,7.97
2023-05-17T10:33:10.987Z,8.82
2023-05-17T10:38:13.003Z,6.88
2023-05-17T10:43:15.732Z,10.32
2023-05-17T10:48:17.967Z,7.40
2023-05-17T10:53:19.286Z,7.28
2023-05-17T10:58:20.762Z,7.55
2023-05-17T11:03:31.052Z,6.32
2023-05-17T11:08:33.157Z,6.47
2023-05-17T11:13:34.675Z,5.97
2023-05-17T11:18:53.483Z,6.35
2023-05-17T11:24:00.191Z,5.30
2023-05-17T11:29:06.944Z,6.05
2023-05-17T11:34:08.519Z,5.43
2023-05-17T11:39:14.177Z,8.50
2023-05-17T11:44:29.137Z,9.68
2023-05-17T11:49:35.830Z,7.70
2023-05-17T11:54:39.941Z,6.38
2023-05-17T11:59:45.658Z,9.18
2023-05-17T12:04:47.211Z,7.65
2023-05-17T12:09:49.437Z,11.23
2023-05-17T12:14:51.001Z,6.82
2023-05-17T12:19:53.543Z,6.82
2023-05-17T12:24:54.883Z,3.72
2023-05-17T12:29:56.250Z,7.07
2023-05-17T12:34:57.650Z,5.30
2023-05-17T12:40:02.039Z,7.25
2023-05-17T12:45:03.921Z,6.43
2023-05-17T12:50:05.892Z,7.05
2023-05-17T12:55:12.746Z,5.30
2023-05-17T13:00:14.670Z,7.95
2023-05-17T13:05:22.403Z,4.63
2023-05-17T13:10:25.756Z,5.35
2023-05-17T13:15:31.842Z,4.45
2023-05-17T13:20:33.298Z,7.72
2023-05-17T13:25:36.051Z,6.10
2023-05-17T13:30:38.169Z,7.97
2023-05-17T13:35:41.374Z,3.53
2023-05-17T13:40:42.936Z,5.65
2023-05-17T13:45:44.312Z,5.43
2023-05-17T13:50:45.628Z,6.63
2023-05-17T13:55:47.574Z,6.57
2023-05-17T14:00:49.021Z,5.85
2023-05-17T14:05:52.066Z,7.03
2023-05-17T14:10:53.445Z,7.80
2023-05-17T14:15:54.618Z,5.97
2023-05-17T14:20:56.078Z,6.50
2023-05-17T14:25:57.380Z,6.65
2023-05-17T14:30:58.795Z,6.38
2023-05-17T14:36:00.563Z,2.95
2023-05-17T14:41:02.519Z,4.38
2023-05-17T14:46:03.856Z,5.43
2023-05-17T14:51:05.392Z,4.47
2023-05-17T14:56:07.015Z,4.43
2023-05-17T15:01:08.515Z,5.18
2023-05-17T15:06:11.896Z,6.25
2023-05-17T15:11:13.577Z,4.05
2023-05-17T15:16:15.102Z,5.10
2023-05-17T15:21:18.133Z,4.70
2023-05-17T15:26:19.582Z,3.17
2023-05-17T15:31:21.246Z,3.08
2023-05-17T15:36:22.438Z,6.75
2023-05-17T15:41:27.736Z,6.05
2023-05-17T15:46:31.541Z,6.75
2023-05-17T15:51:33.163Z,6.35
2023-05-17T15:56:37.472Z,5.43
2023-05-17T16:01:41.338Z,6.22
2023-05-17T16:06:43.068Z,4.72
2023-05-17T16:11:44.471Z,4.75
2023-05-17T16:16:46.307Z,5.78
2023-05-17T16:21:50.539Z,6.97
2023-05-17T16:26:52.033Z,6.78
2023-05-17T16:31:53.554Z,3.42
2023-05-17T16:36:54.767Z,5.35
2023-05-17T16:41:56.182Z,6.47
2023-05-17T16:46:57.813Z,5.88
2023-05-17T16:51:59.100Z,3.95
2023-05-17T16:57:05.932Z,8.35
2023-05-17T17:02:08.880Z,6.80
2023-05-17T17:07:10.287Z,6.75
2023-05-17T17:12:23.963Z,9.10
2023-05-17T17:17:26.368Z,7.03
2023-05-17T17:22:27.754Z,4.57
2023-05-17T17:27:29.176Z,6.72
2023-05-17T17:32:30.910Z,5.45
2023-05-17T17:37:32.351Z,3.90
2023-05-17T17:42:33.672Z,7.57
2023-05-17T17:47:35.133Z,7.57
2023-05-17T17:52:36.752Z,5.82
2023-05-17T17:57:38.544Z,8.40
2023-05-17T18:02:40.211Z,5.25
2023-05-17T18:07:41.752Z,7.35
2023-05-17T18:12:43.241Z,9.98
2023-05-17T18:17:45.172Z,6.20
2023-05-17T18:22:46.656Z,7.20
2023-05-17T18:27:48.253Z,7.60
2023-05-17T18:32:49.620Z,10.23
2023-05-17T18:37:50.976Z,10.70
2023-05-17T18:42:52.707Z,7.50
2023-05-17T18:47:53.975Z,7.73
2023-05-17T18:52:57.007Z,7.90
2023-05-17T18:57:58.782Z,8.03
2023-05-17T19:03:00.509Z,9.60
2023-05-17T19:08:02.024Z,14.07
2023-05-17T19:13:03.445Z,8.77
2023-05-17T19:18:05.173Z,8.00
2023-05-17T19:23:06.695Z,9.10
2023-05-17T19:28:08.178Z,15.10
2023-05-17T19:33:21.266Z,8.23
2023-05-17T19:38:23.204Z,6.13
2023-05-17T19:43:24.693Z,12.23
2023-05-17T19:48:26.156Z,12.43
2023-05-17T19:53:31.898Z,12.33
2023-05-17T19:58:42.061Z,9.80
2023-05-17T20:03:43.856Z,8.63
2023-05-17T20:08:46.240Z,7.33
2023-05-17T20:13:47.742Z,6.83
2023-05-17T20:18:49.474Z,5.43
2023-05-17T20:23:55.790Z,8.30
2023-05-17T20:28:58.318Z,14.37
2023-05-17T20:34:00.276Z,5.60
2023-05-17T20:39:01.685Z,9.40
2023-05-17T20:44:03.058Z,10.77
2023-05-17T20:49:04.438Z,9.57
2023-05-17T20:54:05.734Z,12.53
2023-05-17T20:59:06.951Z,9.20
2023-05-17T21:04:08.392Z,6.27
2023-05-17T21:09:10.215Z,10.67
2023-05-17T21:14:11.667Z,13.23
2023-05-17T21:19:13.874Z,13.07
2023-05-17T21:24:15.517Z,8.90
2023-05-17T21:29:16.823Z,14.33
2023-05-17T21:34:18.030Z,15.37
2023-05-17T21:39:19.482Z,7.07
2023-05-17T21:44:20.821Z,16.37
2023-05-17T21:49:22.259Z,12.70
2023-05-17T21:54:24.158Z,12.40
2023-05-17T21:59:25.412Z,14.67
2023-05-17T22:04:26.840Z,10.00
2023-05-17T22:09:28.584Z,8.87
2023-05-17T22:14:32.479Z,8.90
2023-05-17T22:19:39.704Z,13.43
2023-05-17T22:24:41.135Z,10.00
2023-05-17T22:29:43.207Z,12.47
2023-05-17T22:34:44.611Z,9.77
2023-05-17T22:39:46.321Z,10.47
2023-05-17T22:44:47.707Z,10.63
2023-05-17T22:49:51.759Z,14.30
2023-05-17T22:54:53.122Z,10.13
2023-05-17T22:59:54.390Z,9.03
2023-05-17T23:04:56.416Z,11.33
2023-05-17T23:09:57.789Z,14.80
2023-05-17T23:14:59.199Z,8.37
2023-05-17T23:20:09.193Z,11.90
2023-05-17T23:25:10.934Z,12.03
2023-05-17T23:30:12.379Z,12.03
2023-05-17T23:35:13.648Z,15.37
2023-05-17T23:40:16.038Z,8.57
2023-05-17T23:45:17.408Z,12.17
2023-05-17T23:50:18.838Z,7.40
2023-05-17T23:55:22.253Z,11.07
